SAS1222 EKYT-EKCH
Flight info
| Callsign | SAS1222 |
|---|---|
| Flight time | 0h 50m |
| Altitude | 19000 |
| Route | AAL M725 ADSEN DCT TNO |
| Aircraft | A333/H-SDE1E3FGHIJ3J4J5M1P2RWXYZ/LB1D |
Departure
| Time | 2026-05-08 18:49 |
|---|---|
| Airport | Aalborg Airport (EKYT) |
Arrival
| Time | 2026-05-08 19:39 |
|---|---|
| Airport | Copenhagen Kastrup Airport (EKCH) |
| Time | Latitude | Longitude | Altitude | Speed | Heading |
|---|---|---|---|---|---|
| 2026-05-08 18:07 | 57.08765 | 9.86885 | 25 ft | 0 kts | 55° |
| 2026-05-08 18:32 | 57.08762 | 9.86877 | 22 ft | 4 kts | 52° |
| 2026-05-08 18:32 | 57.08744 | 9.86844 | 27 ft | 4 kts | 28° |
| 2026-05-08 18:32 | 57.08720 | 9.86829 | 28 ft | 4 kts | 2° |
| 2026-05-08 18:33 | 57.08695 | 9.86834 | 26 ft | 4 kts | 341° |
| 2026-05-08 18:33 | 57.08672 | 9.86853 | 27 ft | 4 kts | 325° |
| 2026-05-08 18:33 | 57.08662 | 9.86867 | 28 ft | 0 kts | 318° |
| 2026-05-08 18:35 | 57.08664 | 9.86863 | 28 ft | 1 kts | 318° |
| 2026-05-08 18:35 | 57.08679 | 9.86838 | 26 ft | 4 kts | 319° |
| 2026-05-08 18:36 | 57.08700 | 9.86805 | 28 ft | 8 kts | 319° |
| 2026-05-08 18:36 | 57.08755 | 9.86721 | 27 ft | 12 kts | 321° |
| 2026-05-08 18:36 | 57.08832 | 9.86611 | 26 ft | 15 kts | 322° |
| 2026-05-08 18:36 | 57.08923 | 9.86479 | 25 ft | 18 kts | 322° |
| 2026-05-08 18:37 | 57.09028 | 9.86328 | 25 ft | 20 kts | 323° |
| 2026-05-08 18:37 | 57.09144 | 9.86167 | 27 ft | 22 kts | 322° |
| 2026-05-08 18:37 | 57.09268 | 9.85990 | 27 ft | 22 kts | 323° |
| 2026-05-08 18:37 | 57.09336 | 9.85857 | 27 ft | 15 kts | 284° |
| 2026-05-08 18:38 | 57.09329 | 9.85661 | 26 ft | 16 kts | 263° |
| 2026-05-08 18:38 | 57.09315 | 9.85441 | 24 ft | 18 kts | 263° |
| 2026-05-08 18:38 | 57.09301 | 9.85194 | 26 ft | 20 kts | 264° |
| 2026-05-08 18:38 | 57.09282 | 9.84925 | 26 ft | 22 kts | 263° |
| 2026-05-08 18:39 | 57.09266 | 9.84674 | 25 ft | 9 kts | 263° |
| 2026-05-08 18:39 | 57.09257 | 9.84542 | 26 ft | 12 kts | 263° |
| 2026-05-08 18:39 | 57.09246 | 9.84372 | 22 ft | 15 kts | 263° |
| 2026-05-08 18:39 | 57.09232 | 9.84162 | 25 ft | 18 kts | 263° |
| 2026-05-08 18:40 | 57.09217 | 9.83915 | 24 ft | 19 kts | 263° |
| 2026-05-08 18:40 | 57.09201 | 9.83666 | 26 ft | 19 kts | 268° |
| 2026-05-08 18:40 | 57.09271 | 9.83448 | 27 ft | 22 kts | 315° |
| 2026-05-08 18:40 | 57.09394 | 9.83349 | 24 ft | 17 kts | 327° |
| 2026-05-08 18:41 | 57.09480 | 9.83189 | 26 ft | 19 kts | 313° |
| 2026-05-08 18:41 | 57.09577 | 9.82997 | 25 ft | 22 kts | 310° |
| 2026-05-08 18:41 | 57.09663 | 9.82784 | 27 ft | 17 kts | 321° |
| 2026-05-08 18:41 | 57.09752 | 9.82742 | 26 ft | 14 kts | 4° |
| 2026-05-08 18:42 | 57.09841 | 9.82821 | 27 ft | 12 kts | 50° |
| 2026-05-08 18:42 | 57.09866 | 9.82970 | 22 ft | 13 kts | 87° |
| 2026-05-08 18:42 | 57.09834 | 9.83132 | 25 ft | 14 kts | 129° |
| 2026-05-08 18:42 | 57.09751 | 9.83250 | 25 ft | 15 kts | 146° |
| 2026-05-08 18:43 | 57.09731 | 9.83275 | 26 ft | 0 kts | 144° |
| 2026-05-08 18:43 | 57.09731 | 9.83276 | 25 ft | 0 kts | 143° |
| 2026-05-08 18:43 | 57.09721 | 9.83293 | 27 ft | 1 kts | 138° |
| 2026-05-08 18:45 | 57.09712 | 9.83308 | 27 ft | 4 kts | 137° |
| 2026-05-08 18:45 | 57.09683 | 9.83358 | 23 ft | 8 kts | 137° |
| 2026-05-08 18:45 | 57.09632 | 9.83426 | 26 ft | 10 kts | 160° |
| 2026-05-08 18:45 | 57.09592 | 9.83355 | 25 ft | 10 kts | 258° |
| 2026-05-08 18:46 | 57.09589 | 9.83331 | 26 ft | 0 kts | 260° |
| 2026-05-08 18:46 | 57.09589 | 9.83323 | 26 ft | 2 kts | 260° |
| 2026-05-08 18:47 | 57.09583 | 9.83256 | 23 ft | 8 kts | 261° |
| 2026-05-08 18:47 | 57.09542 | 9.83154 | 23 ft | 11 kts | 204° |
| 2026-05-08 18:47 | 57.09472 | 9.83207 | 27 ft | 13 kts | 135° |
| 2026-05-08 18:47 | 57.09406 | 9.83334 | 25 ft | 14 kts | 130° |
| 2026-05-08 18:48 | 57.09386 | 9.83515 | 24 ft | 15 kts | 83° |
| 2026-05-08 18:48 | 57.09413 | 9.83925 | 25 ft | 63 kts | 83° |
| 2026-05-08 18:48 | 57.09492 | 9.85170 | 22 ft | 132 kts | 83° |
| 2026-05-08 18:48 | 57.09639 | 9.87089 | 474 ft | 161 kts | 83° |
| 2026-05-08 18:49 | 57.09782 | 9.89220 | 1048 ft | 174 kts | 86° |
| 2026-05-08 18:49 | 57.09919 | 9.91591 | 1331 ft | 202 kts | 87° |
| 2026-05-08 18:49 | 57.10067 | 9.94356 | 1599 ft | 231 kts | 87° |
| 2026-05-08 18:49 | 57.10008 | 9.97402 | 2024 ft | 244 kts | 107° |
| 2026-05-08 18:50 | 57.09208 | 10.00133 | 2693 ft | 246 kts | 134° |
| 2026-05-08 18:50 | 57.07909 | 10.02204 | 3445 ft | 248 kts | 145° |
| 2026-05-08 18:50 | 57.06427 | 10.03880 | 4141 ft | 252 kts | 152° |
| 2026-05-08 18:50 | 57.04848 | 10.05339 | 4908 ft | 255 kts | 155° |
| 2026-05-08 18:51 | 57.03237 | 10.06710 | 5719 ft | 255 kts | 155° |
| 2026-05-08 18:51 | 57.01634 | 10.08068 | 6623 ft | 254 kts | 154° |
| 2026-05-08 18:51 | 57.00030 | 10.09467 | 7388 ft | 257 kts | 154° |
| 2026-05-08 18:51 | 56.98408 | 10.10930 | 8133 ft | 262 kts | 154° |
| 2026-05-08 18:52 | 56.96770 | 10.12446 | 8892 ft | 266 kts | 153° |
| 2026-05-08 18:52 | 56.95110 | 10.14006 | 9635 ft | 270 kts | 153° |
| 2026-05-08 18:52 | 56.93430 | 10.15594 | 10391 ft | 274 kts | 153° |
| 2026-05-08 18:52 | 56.91693 | 10.17239 | 10759 ft | 290 kts | 153° |
| 2026-05-08 18:53 | 56.89835 | 10.18993 | 10977 ft | 310 kts | 153° |
| 2026-05-08 18:53 | 56.87861 | 10.20853 | 11264 ft | 328 kts | 153° |
| 2026-05-08 18:53 | 56.85800 | 10.22792 | 11765 ft | 337 kts | 153° |
| 2026-05-08 18:53 | 56.83705 | 10.24761 | 12411 ft | 342 kts | 153° |
| 2026-05-08 18:54 | 56.81575 | 10.26760 | 13080 ft | 346 kts | 153° |
| 2026-05-08 18:54 | 56.79424 | 10.28775 | 13751 ft | 350 kts | 154° |
| 2026-05-08 18:54 | 56.77246 | 10.30811 | 14393 ft | 353 kts | 154° |
| 2026-05-08 18:54 | 56.75046 | 10.32865 | 15000 ft | 357 kts | 154° |
| 2026-05-08 18:55 | 56.70570 | 10.37035 | 16155 ft | 365 kts | 154° |
| 2026-05-08 18:55 | 56.68355 | 10.39100 | 16138 ft | 358 kts | 154° |
| 2026-05-08 18:55 | 56.66170 | 10.41134 | 15886 ft | 350 kts | 154° |
| 2026-05-08 18:56 | 56.64002 | 10.43148 | 15641 ft | 350 kts | 154° |
| 2026-05-08 18:56 | 56.61832 | 10.45156 | 15388 ft | 349 kts | 154° |
| 2026-05-08 18:56 | 56.59674 | 10.47148 | 15269 ft | 347 kts | 154° |
| 2026-05-08 18:56 | 56.57527 | 10.49129 | 15287 ft | 346 kts | 154° |
| 2026-05-08 18:57 | 56.55376 | 10.51114 | 15495 ft | 350 kts | 154° |
| 2026-05-08 18:57 | 56.53888 | 10.52486 | 15652 ft | 359 kts | 154° |
| 2026-05-08 18:57 | 56.50890 | 10.55243 | 16299 ft | 369 kts | 154° |
| 2026-05-08 18:57 | 56.48594 | 10.57352 | 16880 ft | 373 kts | 154° |
| 2026-05-08 18:58 | 56.46267 | 10.59487 | 17442 ft | 377 kts | 154° |
| 2026-05-08 18:58 | 56.43910 | 10.61648 | 18006 ft | 382 kts | 154° |
| 2026-05-08 18:58 | 56.41527 | 10.63829 | 18549 ft | 386 kts | 154° |
| 2026-05-08 18:58 | 56.39117 | 10.66031 | 19008 ft | 389 kts | 154° |
| 2026-05-08 18:59 | 56.36693 | 10.68244 | 19228 ft | 391 kts | 154° |
| 2026-05-08 18:59 | 56.34260 | 10.70462 | 19275 ft | 393 kts | 154° |
| 2026-05-08 18:59 | 56.31847 | 10.72659 | 19275 ft | 381 kts | 154° |
| 2026-05-08 18:59 | 56.29529 | 10.74770 | 19274 ft | 366 kts | 154° |
| 2026-05-08 19:00 | 56.27303 | 10.76792 | 19269 ft | 351 kts | 154° |
| 2026-05-08 19:00 | 56.25175 | 10.78724 | 19270 ft | 337 kts | 154° |
| 2026-05-08 19:00 | 56.23124 | 10.80582 | 19285 ft | 323 kts | 154° |
| 2026-05-08 19:00 | 56.21151 | 10.82338 | 19284 ft | 310 kts | 156° |
| 2026-05-08 19:01 | 56.19250 | 10.83985 | 19284 ft | 299 kts | 157° |
| 2026-05-08 19:01 | 56.17384 | 10.85600 | 19267 ft | 296 kts | 156° |
| 2026-05-08 19:01 | 56.15541 | 10.87259 | 19271 ft | 297 kts | 152° |
| 2026-05-08 19:01 | 56.13810 | 10.89313 | 19268 ft | 299 kts | 146° |
| 2026-05-08 19:02 | 56.12158 | 10.91563 | 19267 ft | 299 kts | 144° |
| 2026-05-08 19:02 | 56.10548 | 10.93907 | 19286 ft | 299 kts | 142° |
| 2026-05-08 19:02 | 56.08956 | 10.96308 | 19285 ft | 299 kts | 142° |
| 2026-05-08 19:02 | 56.07379 | 10.98723 | 19283 ft | 299 kts | 142° |
| 2026-05-08 19:03 | 56.05798 | 11.01147 | 19284 ft | 299 kts | 142° |
| 2026-05-08 19:03 | 56.04217 | 11.03563 | 19281 ft | 299 kts | 142° |
| 2026-05-08 19:03 | 56.02630 | 11.05973 | 19282 ft | 299 kts | 142° |
| 2026-05-08 19:03 | 56.01037 | 11.08381 | 19282 ft | 299 kts | 142° |
| 2026-05-08 19:04 | 55.99449 | 11.10771 | 19281 ft | 299 kts | 142° |
| 2026-05-08 19:04 | 55.97852 | 11.13168 | 19266 ft | 299 kts | 142° |
| 2026-05-08 19:04 | 55.96259 | 11.15556 | 19280 ft | 299 kts | 142° |
| 2026-05-08 19:04 | 55.94661 | 11.17947 | 19281 ft | 299 kts | 142° |
| 2026-05-08 19:05 | 55.93066 | 11.20332 | 19284 ft | 299 kts | 142° |
| 2026-05-08 19:05 | 55.91464 | 11.22725 | 19159 ft | 300 kts | 142° |
| 2026-05-08 19:05 | 55.89873 | 11.25099 | 18915 ft | 298 kts | 142° |
| 2026-05-08 19:05 | 55.88284 | 11.27469 | 18685 ft | 297 kts | 142° |
| 2026-05-08 19:06 | 55.86702 | 11.29826 | 18423 ft | 296 kts | 142° |
| 2026-05-08 19:06 | 55.85123 | 11.32175 | 18155 ft | 294 kts | 142° |
| 2026-05-08 19:06 | 55.83558 | 11.34501 | 17876 ft | 292 kts | 142° |
| 2026-05-08 19:06 | 55.82008 | 11.36802 | 17611 ft | 290 kts | 142° |
| 2026-05-08 19:07 | 55.80365 | 11.38839 | 17340 ft | 286 kts | 155° |
| 2026-05-08 19:07 | 55.78521 | 11.40052 | 17068 ft | 281 kts | 172° |
| 2026-05-08 19:07 | 55.76587 | 11.40167 | 16814 ft | 277 kts | 192° |
| 2026-05-08 19:07 | 55.74795 | 11.39113 | 16566 ft | 276 kts | 212° |
| 2026-05-08 19:08 | 55.73244 | 11.37110 | 16298 ft | 276 kts | 223° |
| 2026-05-08 19:08 | 55.71818 | 11.34842 | 16038 ft | 276 kts | 224° |
| 2026-05-08 19:08 | 55.70410 | 11.32539 | 15786 ft | 275 kts | 224° |
| 2026-05-08 19:08 | 55.68944 | 11.30377 | 15519 ft | 274 kts | 214° |
| 2026-05-08 19:09 | 55.67226 | 11.28940 | 15264 ft | 275 kts | 196° |
| 2026-05-08 19:09 | 55.65337 | 11.28736 | 15020 ft | 274 kts | 171° |
| 2026-05-08 19:09 | 55.63596 | 11.30038 | 14769 ft | 273 kts | 145° |
| 2026-05-08 19:09 | 55.62150 | 11.32213 | 14542 ft | 273 kts | 139° |
| 2026-05-08 19:10 | 55.60782 | 11.34538 | 14301 ft | 271 kts | 137° |
| 2026-05-08 19:10 | 55.59437 | 11.36855 | 14058 ft | 270 kts | 137° |
| 2026-05-08 19:10 | 55.58094 | 11.39157 | 13781 ft | 267 kts | 138° |
| 2026-05-08 19:10 | 55.56760 | 11.41426 | 13516 ft | 265 kts | 138° |
| 2026-05-08 19:11 | 55.55438 | 11.43665 | 13308 ft | 262 kts | 138° |
| 2026-05-08 19:11 | 55.54118 | 11.45895 | 13275 ft | 263 kts | 138° |
| 2026-05-08 19:11 | 55.52796 | 11.48122 | 13279 ft | 262 kts | 138° |
| 2026-05-08 19:11 | 55.51474 | 11.50345 | 13279 ft | 263 kts | 138° |
| 2026-05-08 19:12 | 55.50145 | 11.52575 | 13276 ft | 264 kts | 138° |
| 2026-05-08 19:12 | 55.48821 | 11.54796 | 13283 ft | 263 kts | 138° |
| 2026-05-08 19:12 | 55.47496 | 11.57020 | 13275 ft | 262 kts | 137° |
| 2026-05-08 19:12 | 55.46403 | 11.59589 | 13288 ft | 264 kts | 120° |
| 2026-05-08 19:13 | 55.45870 | 11.62655 | 13278 ft | 265 kts | 95° |
| 2026-05-08 19:13 | 55.46163 | 11.65851 | 13284 ft | 267 kts | 68° |
| 2026-05-08 19:13 | 55.47232 | 11.68515 | 13290 ft | 269 kts | 47° |
| 2026-05-08 19:13 | 55.48606 | 11.70767 | 13280 ft | 270 kts | 44° |
| 2026-05-08 19:14 | 55.50019 | 11.72932 | 13281 ft | 270 kts | 43° |
| 2026-05-08 19:14 | 55.51441 | 11.75111 | 13281 ft | 270 kts | 44° |
| 2026-05-08 19:14 | 55.52852 | 11.77291 | 13288 ft | 270 kts | 44° |
| 2026-05-08 19:14 | 55.54192 | 11.79581 | 13283 ft | 267 kts | 55° |
| 2026-05-08 19:15 | 55.55156 | 11.82302 | 13287 ft | 265 kts | 64° |
| 2026-05-08 19:15 | 55.56021 | 11.85235 | 13291 ft | 266 kts | 65° |
| 2026-05-08 19:15 | 55.56864 | 11.88151 | 13294 ft | 266 kts | 65° |
| 2026-05-08 19:15 | 55.57700 | 11.91067 | 13290 ft | 266 kts | 65° |
| 2026-05-08 19:16 | 55.58537 | 11.93986 | 13291 ft | 266 kts | 66° |
| 2026-05-08 19:16 | 55.59380 | 11.96910 | 13204 ft | 267 kts | 65° |
| 2026-05-08 19:16 | 55.60228 | 11.99873 | 12772 ft | 271 kts | 65° |
| 2026-05-08 19:16 | 55.61073 | 12.02817 | 12576 ft | 266 kts | 66° |
| 2026-05-08 19:17 | 55.61905 | 12.05702 | 12311 ft | 262 kts | 65° |
| 2026-05-08 19:17 | 55.62731 | 12.08575 | 12012 ft | 261 kts | 66° |
| 2026-05-08 19:17 | 55.63552 | 12.11430 | 11723 ft | 260 kts | 65° |
| 2026-05-08 19:17 | 55.64373 | 12.14272 | 11432 ft | 258 kts | 65° |
| 2026-05-08 19:18 | 55.65188 | 12.17094 | 11142 ft | 257 kts | 65° |
| 2026-05-08 19:18 | 55.66002 | 12.19904 | 10847 ft | 256 kts | 65° |
| 2026-05-08 19:18 | 55.66813 | 12.22694 | 10564 ft | 254 kts | 65° |
| 2026-05-08 19:18 | 55.67624 | 12.25475 | 10276 ft | 253 kts | 65° |
| 2026-05-08 19:19 | 55.68159 | 12.27308 | 10096 ft | 252 kts | 66° |
| 2026-05-08 19:19 | 55.68963 | 12.30051 | 9794 ft | 251 kts | 65° |
| 2026-05-08 19:19 | 55.69768 | 12.32795 | 9483 ft | 249 kts | 66° |
| 2026-05-08 19:19 | 55.70567 | 12.35510 | 9199 ft | 248 kts | 66° |
| 2026-05-08 19:20 | 55.71360 | 12.38198 | 8924 ft | 245 kts | 66° |
| 2026-05-08 19:20 | 55.71896 | 12.40010 | 8744 ft | 244 kts | 66° |
| 2026-05-08 19:20 | 55.72936 | 12.43517 | 8382 ft | 241 kts | 65° |
| 2026-05-08 19:20 | 55.73704 | 12.46144 | 8132 ft | 239 kts | 66° |
| 2026-05-08 19:21 | 55.74466 | 12.48760 | 7852 ft | 237 kts | 66° |
| 2026-05-08 19:21 | 55.75220 | 12.51353 | 7575 ft | 236 kts | 66° |
| 2026-05-08 19:21 | 55.75973 | 12.53935 | 7311 ft | 234 kts | 66° |
| 2026-05-08 19:21 | 55.76722 | 12.56498 | 7051 ft | 233 kts | 66° |
| 2026-05-08 19:22 | 55.77466 | 12.59041 | 6784 ft | 232 kts | 66° |
| 2026-05-08 19:22 | 55.78205 | 12.61570 | 6502 ft | 230 kts | 66° |
| 2026-05-08 19:22 | 55.78942 | 12.64091 | 6211 ft | 229 kts | 66° |
| 2026-05-08 19:22 | 55.79672 | 12.66601 | 5921 ft | 228 kts | 66° |
| 2026-05-08 19:23 | 55.80401 | 12.69103 | 5647 ft | 227 kts | 66° |
| 2026-05-08 19:23 | 55.81047 | 12.71646 | 5381 ft | 225 kts | 79° |
| 2026-05-08 19:23 | 55.80996 | 12.74351 | 5094 ft | 221 kts | 112° |
| 2026-05-08 19:23 | 55.80093 | 12.76536 | 4777 ft | 223 kts | 140° |
| 2026-05-08 19:24 | 55.78828 | 12.78136 | 4482 ft | 223 kts | 146° |
| 2026-05-08 19:24 | 55.77523 | 12.79608 | 4231 ft | 221 kts | 147° |
| 2026-05-08 19:24 | 55.76228 | 12.81045 | 4024 ft | 219 kts | 147° |
| 2026-05-08 19:24 | 55.74928 | 12.82448 | 3981 ft | 219 kts | 152° |
| 2026-05-08 19:25 | 55.73443 | 12.83028 | 3860 ft | 226 kts | 181° |
| 2026-05-08 19:25 | 55.71891 | 12.82442 | 3609 ft | 226 kts | 194° |
| 2026-05-08 19:25 | 55.70475 | 12.81421 | 3533 ft | 218 kts | 212° |
| 2026-05-08 19:25 | 55.69516 | 12.79447 | 3448 ft | 211 kts | 234° |
| 2026-05-08 19:26 | 55.68599 | 12.77540 | 3289 ft | 199 kts | 219° |
| 2026-05-08 19:26 | 55.67553 | 12.75999 | 3053 ft | 194 kts | 215° |
| 2026-05-08 19:26 | 55.66500 | 12.74516 | 2784 ft | 193 kts | 215° |
| 2026-05-08 19:26 | 55.65450 | 12.73035 | 2507 ft | 193 kts | 215° |
| 2026-05-08 19:27 | 55.64411 | 12.71564 | 2502 ft | 189 kts | 215° |
| 2026-05-08 19:27 | 55.63364 | 12.70082 | 2846 ft | 197 kts | 214° |
| 2026-05-08 19:27 | 55.62298 | 12.68561 | 2983 ft | 196 kts | 215° |
| 2026-05-08 19:27 | 55.61232 | 12.67042 | 2993 ft | 197 kts | 215° |
| 2026-05-08 19:28 | 55.60162 | 12.65539 | 2993 ft | 197 kts | 215° |
| 2026-05-08 19:28 | 55.59084 | 12.64024 | 2993 ft | 197 kts | 214° |
| 2026-05-08 19:28 | 55.57906 | 12.62906 | 2986 ft | 189 kts | 186° |
| 2026-05-08 19:28 | 55.56596 | 12.63201 | 2965 ft | 203 kts | 150° |
| 2026-05-08 19:29 | 55.55482 | 12.64796 | 2985 ft | 210 kts | 130° |
| 2026-05-08 19:29 | 55.54564 | 12.66811 | 2984 ft | 210 kts | 126° |
| 2026-05-08 19:29 | 55.53686 | 12.68874 | 2985 ft | 210 kts | 126° |
| 2026-05-08 19:29 | 55.52810 | 12.70949 | 2985 ft | 210 kts | 126° |
| 2026-05-08 19:30 | 55.52010 | 12.73084 | 2976 ft | 209 kts | 112° |
| 2026-05-08 19:30 | 55.51857 | 12.75605 | 2987 ft | 210 kts | 81° |
| 2026-05-08 19:30 | 55.52508 | 12.77913 | 2993 ft | 215 kts | 54° |
| 2026-05-08 19:30 | 55.53582 | 12.79784 | 2994 ft | 218 kts | 47° |
| 2026-05-08 19:31 | 55.54734 | 12.81530 | 2995 ft | 218 kts | 46° |
| 2026-05-08 19:31 | 55.55887 | 12.83265 | 2992 ft | 218 kts | 46° |
| 2026-05-08 19:31 | 55.57044 | 12.85000 | 2993 ft | 218 kts | 46° |
| 2026-05-08 19:31 | 55.58201 | 12.86735 | 2994 ft | 218 kts | 46° |
| 2026-05-08 19:32 | 55.59356 | 12.88479 | 2992 ft | 218 kts | 46° |
| 2026-05-08 19:32 | 55.60510 | 12.90216 | 2991 ft | 218 kts | 46° |
| 2026-05-08 19:32 | 55.61671 | 12.91957 | 2992 ft | 218 kts | 46° |
| 2026-05-08 19:32 | 55.62829 | 12.93700 | 2985 ft | 219 kts | 46° |
| 2026-05-08 19:33 | 55.63987 | 12.95458 | 2991 ft | 221 kts | 46° |
| 2026-05-08 19:33 | 55.65156 | 12.97226 | 2996 ft | 220 kts | 46° |
| 2026-05-08 19:33 | 55.66319 | 12.98974 | 2992 ft | 218 kts | 46° |
| 2026-05-08 19:33 | 55.67495 | 13.00619 | 2981 ft | 222 kts | 35° |
| 2026-05-08 19:34 | 55.69002 | 13.01326 | 2993 ft | 232 kts | 5° |
| 2026-05-08 19:34 | 55.70574 | 13.00577 | 2994 ft | 241 kts | 334° |
| 2026-05-08 19:34 | 55.71806 | 12.98493 | 2997 ft | 245 kts | 305° |
| 2026-05-08 19:34 | 55.72622 | 12.95847 | 2996 ft | 245 kts | 297° |
| 2026-05-08 19:35 | 55.73336 | 12.93142 | 2993 ft | 245 kts | 296° |
| 2026-05-08 19:35 | 55.74044 | 12.90397 | 2993 ft | 245 kts | 296° |
| 2026-05-08 19:35 | 55.74749 | 12.87640 | 2992 ft | 245 kts | 296° |
| 2026-05-08 19:35 | 55.75274 | 12.84777 | 2987 ft | 245 kts | 275° |
| 2026-05-08 19:36 | 55.75040 | 12.81827 | 2962 ft | 241 kts | 245° |
| 2026-05-08 19:36 | 55.74083 | 12.79437 | 2600 ft | 237 kts | 216° |
| 2026-05-08 19:36 | 55.72674 | 12.78042 | 2400 ft | 228 kts | 199° |
| 2026-05-08 19:36 | 55.71203 | 12.77063 | 2168 ft | 225 kts | 196° |
| 2026-05-08 19:37 | 55.69737 | 12.76135 | 2008 ft | 223 kts | 196° |
| 2026-05-08 19:37 | 55.68276 | 12.75210 | 1992 ft | 224 kts | 197° |
| 2026-05-08 19:37 | 55.66939 | 12.73850 | 2005 ft | 217 kts | 216° |
| 2026-05-08 19:37 | 55.65833 | 12.72011 | 1458 ft | 216 kts | 220° |
| 2026-05-08 19:38 | 55.64752 | 12.70169 | 804 ft | 216 kts | 218° |
| 2026-05-08 19:38 | 55.63641 | 12.68461 | 395 ft | 203 kts | 219° |
| 2026-05-08 19:38 | 55.62604 | 12.66858 | 52 ft | 188 kts | 218° |
| 2026-05-08 19:38 | 55.61708 | 12.65470 | 26 ft | 146 kts | 222° |
| 2026-05-08 19:39 | 55.61072 | 12.64486 | 22 ft | 86 kts | 221° |
| 2026-05-08 19:39 | 55.60777 | 12.64026 | 26 ft | 33 kts | 221° |
| 2026-05-08 19:39 | 55.60696 | 12.63798 | 24 ft | 15 kts | 281° |
| 2026-05-08 19:39 | 55.60732 | 12.63698 | 24 ft | 8 kts | 310° |
| 2026-05-08 19:40 | 55.60774 | 12.63613 | 24 ft | 9 kts | 315° |
| 2026-05-08 19:40 | 55.60825 | 12.63599 | 24 ft | 8 kts | 14° |
| 2026-05-08 19:40 | 55.60878 | 12.63651 | 23 ft | 10 kts | 33° |
| 2026-05-08 19:40 | 55.60944 | 12.63726 | 24 ft | 13 kts | 33° |
| 2026-05-08 19:41 | 55.61030 | 12.63825 | 22 ft | 16 kts | 33° |
| 2026-05-08 19:41 | 55.61131 | 12.63943 | 24 ft | 18 kts | 34° |
| 2026-05-08 19:41 | 55.61239 | 12.64067 | 24 ft | 19 kts | 32° |
| 2026-05-08 19:41 | 55.61351 | 12.64195 | 21 ft | 19 kts | 33° |
| 2026-05-08 19:42 | 55.61465 | 12.64327 | 22 ft | 20 kts | 33° |
| 2026-05-08 19:42 | 55.61579 | 12.64458 | 26 ft | 19 kts | 33° |
| 2026-05-08 19:42 | 55.61693 | 12.64566 | 24 ft | 18 kts | 9° |
| 2026-05-08 19:42 | 55.61819 | 12.64535 | 23 ft | 19 kts | 351° |
| 2026-05-08 19:43 | 55.61948 | 12.64491 | 22 ft | 19 kts | 349° |
| 2026-05-08 19:43 | 55.62076 | 12.64448 | 22 ft | 12 kts | 349° |
| 2026-05-08 19:43 | 55.62088 | 12.64444 | 22 ft | 0 kts | 349° |
| 2026-05-08 19:45 | 55.62090 | 12.64443 | 24 ft | 1 kts | 349° |
| 2026-05-08 19:45 | 55.62107 | 12.64438 | 22 ft | 4 kts | 349° |
| 2026-05-08 19:45 | 55.62154 | 12.64422 | 20 ft | 9 kts | 349° |
| 2026-05-08 19:46 | 55.62222 | 12.64401 | 20 ft | 10 kts | 352° |
| 2026-05-08 19:46 | 55.62296 | 12.64406 | 24 ft | 12 kts | 14° |
| 2026-05-08 19:46 | 55.62453 | 12.64368 | 22 ft | 14 kts | 310° |
| 2026-05-08 19:47 | 55.62516 | 12.64225 | 24 ft | 16 kts | 316° |
| 2026-05-08 19:47 | 55.62583 | 12.64205 | 22 ft | 8 kts | 343° |
| 2026-05-08 19:47 | 55.62625 | 12.64126 | 23 ft | 11 kts | 302° |
| 2026-05-08 19:47 | 55.62676 | 12.64011 | 23 ft | 13 kts | 335° |
| 2026-05-08 19:48 | 55.62721 | 12.64025 | 23 ft | 6 kts | 26° |
| 2026-05-08 19:48 | 55.62739 | 12.64043 | 25 ft | 1 kts | 30° |
| 2026-05-08 19:48 | 55.62740 | 12.64043 | 25 ft | 0 kts | 30° |